NCAR-RAP Real-Time Weather Data

Output produced by METARs form (27 January 2021  15:58 UTC)
found at http://weather.rap.ucar.edu/surface/
 
K0S9 271555Z AUTO 14006G13KT 10SM BKN075 BKN110 03/02 A2951 RMK AO2
 
K1S5 271555Z AUTO 00000KT 5SM BR OVC003 00/00 A2958 RMK AO2 T00010000
 
 
KALW 271553Z 16018G28KT 10SM OVC075 06/M04 A2955 RMK AO2 PK WND 16035/1459 SLP011 T00611044
 
KAWO 271540Z AUTO 14009KT 10SM -RA BKN024 BKN031 OVC038 04/00 A2955 RMK AO2 P0000
 
KBFI 271553Z 12003KT 9SM -RA OVC022 03/02 A2955 RMK AO2 SLP005 P0002 T00280017
 
KBLI 271553Z 04006KT 3SM -SN BR OVC024 01/01 A2954 RMK AO2 SNB1457 SLP013 P0003 T00110011
 
KBVS 271535Z AUTO 11007KT 10SM BKN024 OVC029 05/00 A2953 RMK A01
 
KCLM 271553Z AUTO 24005KT 10SM FEW065 01/M02 A2948 RMK AO2 SLP986 T00061017
 
KCLS 271555Z AUTO 19004KT 10SM FEW014 OVC026 03/03 A2953 RMK AO2
 
 
KDEW 271553Z AUTO 05007KT 1SM -SN BKN021 OVC028 M02/M04 A2964 RMK AO2 SLP057 P0000 T10171044
 
KEAT 271513Z AUTO 00000KT 1 1/4SM -SN BR OVC015 M02/M03 A2958 RMK AO2 P0001 T10171028
 
KELN 271553Z AUTO 32003KT 1 1/4SM -SN BR FEW008 SCT024 OVC028 M01/M03 A2954 RMK AO2 SLP016 P0002 T10061028 $
 
KEPH 271553Z AUTO 02004KT 1 3/4SM -SN BR OVC004 00/M01 A2957 RMK AO2 SLP025 P0003 T00001006
 
KFHR 271553Z AUTO 12009KT 10SM BKN023 OVC029 04/01 A2953 RMK AO2 RAB25E41 SLP001 P0000 T00440011 TSNO
 
KGEG 271553Z 12009KT 1/2SM R21/4500V6000FT -SN BR FEW008 OVC012 M02/M04 A2961 RMK AO2 SFC VIS 3/4 SLP048 P0002 T10171039
 
 
 
KHQM 271553Z AUTO 08007KT 10SM BKN021 OVC027 03/01 A2950 RMK AO2 UPB21E49 SLP994 P0000 T00280006
 
KKLS 271517Z AUTO 00000KT 10SM -RA SCT006 OVC018 02/02 A2954 RMK AO2 RAB06 P0000 FZRANO
 
KMWH 271552Z 13007KT 10SM FEW026 OVC044 02/00 A2958 RMK AO2 UPB00E07SNE00 SLP026 P0001 T00220000
 
KNUW 271556Z 14009KT 7SM -RA SCT014 OVC032 05/M01 A2956 RMK AO2 SLP011 P0000 T00501006
 
 
KOLM 271506Z AUTO 15003KT 10SM FEW022 OVC028 02/01 A2952 RMK AO2 T00170006
 
KOMK 271545Z AUTO 34006KT 1 1/4SM -SN BR OVC018 M01/M02 A2962 RMK AO2 P0002 T10111022
 
KORS 271535Z AUTO VRB06KT 10SM SCT027 OVC038 05/01 A2952 RMK AO2
 
KPAE 271553Z VRB04KT 9SM -RA OVC010 02/00 A2953 RMK AO2 SLP004 P0002 T00220000
 
KPLU 271535Z AUTO 00000KT 8SM -DZ FEW008 BKN020 OVC028 02/02 A2952 RMK AO2
 
KPSC 271553Z 00000KT 10SM BKN055 OVC070 01/01 A2961 RMK AO2 RAB1454E51 SLP030 P0000 T00110006
 
KPUW 271553Z AUTO 10011KT 10SM OVC070 00/M07 A2961 RMK AO2 SLP050 T00001072
 
KPWT 271556Z AUTO 13005KT 10SM -RA BKN020 OVC026 02/01 A2953 RMK AO2 UPE00B21E27RAB27 SLP008 P0000 T00170011 FZRANO $
 
KRLD 271535Z AUTO 00000KT 7SM UP SCT005 BKN035 OVC041 01/01 A2961 RMK AO2 P0001 T00110010
 
KRNT 271553Z 00000KT 9SM -RA FEW013 OVC023 04/01 A2955 RMK AO2 SLP010 P0000 T00390006
 
 
KSEA 271553Z 10004KT 9SM -RA OVC024 03/01 A2953 RMK AO2 SLP008 P0003 T00280011
 
KSFF 271553Z 08005KT 1 1/2SM -SN SCT029 OVC037 M01/M03 A2964 RMK AO2 SLP053 P0000 T10061033
 
KSHN 271553Z AUTO 05004KT 10SM BKN011 OVC019 02/01 A2951 RMK AO2 SLP997 T00170006
 
 
KSMP 271537Z AUTO 00000KT 4SM -SN BR OVC002 M04/M06 A2942 RMK AO2 P0000 T10441061
 
 
 
KTIW 271553Z 00000KT 7SM -RA SCT009 OVC026 02/00 A2953 RMK AO2 SLP004 P0004 T00170000
 
KUIL 271553Z AUTO 08004KT 10SM OVC019 02/01 A2948 RMK AO2 RAE47 SLP985 P0002 T00170006
 
KVUO 271553Z AUTO 09003KT 10SM BKN019 OVC044 04/02 A2953 RMK AO2 SLP001 T00390017
 
KYKM 271553Z 25005KT 9SM OVC016 00/M01 A2957 RMK AO2 SNE37 SLP023 P0001 T00001011 $